Minerva Libra — SVAA7 — position and weather

sailwx.info

Track history (hours):
 
Tides and Currents Weather Stations Pressure Air Temp Water Temp Dewpoint Dewpoint Depression Visibility Wind Speed Wind Dir Waves Ship Positions

Minerva Libra

Last reported at 2014-Jul-21 17:18 UTC. Time now 2014-Jul-31 17:37 UTC.
Position N 59°18' W 005°13'.
Warning: this ship's position is 10 days out of date.

Length 250 m; draft 13.4 m.

Type: Tanker. MMSI: 240766000.

Date/timePositionNaut miles runAvg speedWind from/ knotsBaromVisibWave heightAir tempDewpointWater temp
2014-Jul-21 17:18N 59°18' W 005°13'5511.5
2014-Jul-21 12:33N 59°29' W 003°28'28211.7
2014-Jul-20 12:32N 58°06' E 005°12'11612.8
2014-Jul-20 03:29N 57°47' E 008°48'1213.3
2014-Jul-20 02:33N 57°48' E 009°11'1313.1
2014-Jul-20 01:33N 57°49' E 009°35'1313.5
2014-Jul-20 00:33N 57°49' E 010°01'1413.7
2014-Jul-19 23:33N 57°49' E 010°26'1211.7
2014-Jul-19 22:33N 57°46' E 010°47'7 7.5
2014-Jul-19 21:33N 57°40' E 010°39'0 0.1
2014-Jul-19 20:33N 57°40' E 010°39'0 0.1
2014-Jul-19 19:33N 57°40' E 010°39'0 0.0
2014-Jul-19 18:33N 57°40' E 010°39'0 0.0
2014-Jul-19 17:33N 57°40' E 010°39'0 0.1
2014-Jul-19 16:33N 57°40' E 010°39'6 5.7
2014-Jul-19 15:33N 57°37' E 010°49'1413.7
2014-Jul-19 14:33N 57°32' E 011°12'1211.9
2014-Jul-19 13:33N 57°24' E 011°28'1312.9
2014-Jul-19 12:33N 57°12' E 011°37'1212.5
2014-Jul-19 11:33N 56°60' E 011°44'1312.7
2014-Jul-19 10:33N 56°48' E 011°52'1211.6
2014-Jul-19 09:32N 56°37' E 011°45'1212.6
2014-Jul-19 08:33N 56°26' E 011°33'1313.4
2014-Jul-19 07:33N 56°15' E 011°21'1313.0
2014-Jul-19 06:32N 56°04' E 011°07'1212.4
2014-Jul-19 05:33N 55°54' E 010°53'1111.4
2014-Jul-19 04:33N 55°43' E 010°48'9 8.8
2014-Jul-19 03:33N 55°34' E 010°50'5 4.8
2014-Jul-19 02:33N 55°30' E 010°53'7 6.7
2014-Jul-19 01:33N 55°25' E 010°60'1212.4
2014-Jul-19 00:33N 55°13' E 011°06'1211.8
2014-Jul-18 23:33N 55°01' E 010°60'1312.5
2014-Jul-18 22:33N 54°50' E 010°50'1111.2
2014-Jul-18 21:32N 54°39' E 010°52'1212.6
2014-Jul-18 20:33N 54°35' E 011°12'1313.3
2014-Jul-18 19:33N 54°30' E 011°33'1312.8
2014-Jul-18 18:33N 54°26' E 011°54'1111.3
2014-Jul-18 17:33N 54°30' E 012°13'1212.4
2014-Jul-18 16:33N 54°40' E 012°26'1212.5
2014-Jul-18 15:33N 54°46' E 012°44'1212.2
2014-Jul-18 14:33N 54°51' E 013°03'1313.4
2014-Jul-18 13:33N 54°56' E 013°25'1313.4
2014-Jul-18 12:33N 55°00' E 013°47'1413.2
2014-Jul-18 11:29N 55°07' E 014°09'1213.2
2014-Jul-18 10:33N 55°12' E 014°29'1312.5
2014-Jul-18 09:33N 55°20' E 014°45'1110.9
2014-Jul-18 08:33N 55°28' E 014°58'1313.1
2014-Jul-18 07:32N 55°38' E 015°14'1313.4
2014-Jul-18 06:33N 55°45' E 015°33'1413.5
2014-Jul-18 05:33N 55°52' E 015°54'1413.5
2014-Jul-18 04:33N 55°59' E 016°15'1313.4
2014-Jul-18 03:33N 56°06' E 016°36'1913.0
2014-Jul-18 02:07N 56°22' E 016°54'2313.6
2014-Jul-18 00:25N 56°43' E 017°09'1313.6
2014-Jul-17 23:26N 56°56' E 017°18'1213.3
2014-Jul-17 22:31N 57°07' E 017°26'1313.2
2014-Jul-17 21:33N 57°19' E 017°34'1313.0
2014-Jul-17 20:33N 57°31' E 017°41'1312.9
2014-Jul-17 19:33N 57°44' E 017°40'5510.9
2014-Jul-17 14:28N 58°38' E 017°10'  
2014-Jul-14 07:32N 58°39' E 017°08'78 1.9
2014-Jul-12 15:13N 57°24' E 017°47'1013.7
2014-Jul-12 14:28N 57°15' E 017°40'1313.8
2014-Jul-12 13:33N 57°03' E 017°31'1513.9
2014-Jul-12 12:30N 56°49' E 017°22'6412.9
2014-Jul-12 07:32N 55°55' E 016°20'3913.0
2014-Jul-12 04:33N 55°35' E 015°22'1313.1
2014-Jul-12 03:33N 55°29' E 015°00'1313.1
2014-Jul-12 02:33N 55°24' E 014°39'1413.1
2014-Jul-12 01:31N 55°14' E 014°24'2512.1
2014-Jul-11 23:27N 55°11' E 013°40'1413.2
2014-Jul-11 22:25N 55°12' E 013°16'1113.0
2014-Jul-11 21:33N 55°13' E 012°57'1010.5
2014-Jul-11 20:33N 55°17' E 012°39'10 9.9
2014-Jul-11 19:33N 55°27' E 012°40'9 9.0
2014-Jul-11 18:33N 55°36' E 012°42'1111.5
2014-Jul-11 17:33N 55°47' E 012°42'  
Track history (hours):
 
Tides and Currents Weather Stations Pressure Air Temp Water Temp Dewpoint Dewpoint Depression Visibility Wind Speed Wind Dir Waves Ship Positions

Minerva Libra

Last reported at 2014-Jul-21 17:18 UTC. Time now 2014-Jul-31 17:37 UTC.
Position N 59°18' W 005°13'.
Warning: this ship's position is 10 days out of date.

Length 250 m; draft 13.4 m.

Type: Tanker. MMSI: 240766000.

Date/timePositionNaut miles runAvg speedWind from/ knotsBaromVisibWave heightAir tempDewpointWater temp
2014-Jul-21 17:18N 59°18' W 005°13'5511.5
2014-Jul-21 12:33N 59°29' W 003°28'28211.7
2014-Jul-20 12:32N 58°06' E 005°12'11612.8
2014-Jul-20 03:29N 57°47' E 008°48'1213.3
2014-Jul-20 02:33N 57°48' E 009°11'1313.1
2014-Jul-20 01:33N 57°49' E 009°35'1313.5
2014-Jul-20 00:33N 57°49' E 010°01'1413.7
2014-Jul-19 23:33N 57°49' E 010°26'1211.7
2014-Jul-19 22:33N 57°46' E 010°47'7 7.5
2014-Jul-19 21:33N 57°40' E 010°39'0 0.1
2014-Jul-19 20:33N 57°40' E 010°39'0 0.1
2014-Jul-19 19:33N 57°40' E 010°39'0 0.0
2014-Jul-19 18:33N 57°40' E 010°39'0 0.0
2014-Jul-19 17:33N 57°40' E 010°39'0 0.1
2014-Jul-19 16:33N 57°40' E 010°39'6 5.7
2014-Jul-19 15:33N 57°37' E 010°49'1413.7
2014-Jul-19 14:33N 57°32' E 011°12'1211.9
2014-Jul-19 13:33N 57°24' E 011°28'1312.9
2014-Jul-19 12:33N 57°12' E 011°37'1212.5
2014-Jul-19 11:33N 56°60' E 011°44'1312.7
2014-Jul-19 10:33N 56°48' E 011°52'1211.6
2014-Jul-19 09:32N 56°37' E 011°45'1212.6
2014-Jul-19 08:33N 56°26' E 011°33'1313.4
2014-Jul-19 07:33N 56°15' E 011°21'1313.0
2014-Jul-19 06:32N 56°04' E 011°07'1212.4
2014-Jul-19 05:33N 55°54' E 010°53'1111.4
2014-Jul-19 04:33N 55°43' E 010°48'9 8.8
2014-Jul-19 03:33N 55°34' E 010°50'5 4.8
2014-Jul-19 02:33N 55°30' E 010°53'7 6.7
2014-Jul-19 01:33N 55°25' E 010°60'1212.4
2014-Jul-19 00:33N 55°13' E 011°06'1211.8
2014-Jul-18 23:33N 55°01' E 010°60'1312.5
2014-Jul-18 22:33N 54°50' E 010°50'1111.2
2014-Jul-18 21:32N 54°39' E 010°52'1212.6
2014-Jul-18 20:33N 54°35' E 011°12'1313.3
2014-Jul-18 19:33N 54°30' E 011°33'1312.8
2014-Jul-18 18:33N 54°26' E 011°54'1111.3
2014-Jul-18 17:33N 54°30' E 012°13'1212.4
2014-Jul-18 16:33N 54°40' E 012°26'1212.5
2014-Jul-18 15:33N 54°46' E 012°44'1212.2
2014-Jul-18 14:33N 54°51' E 013°03'1313.4
2014-Jul-18 13:33N 54°56' E 013°25'1313.4
2014-Jul-18 12:33N 55°00' E 013°47'1413.2
2014-Jul-18 11:29N 55°07' E 014°09'1213.2
2014-Jul-18 10:33N 55°12' E 014°29'1312.5
2014-Jul-18 09:33N 55°20' E 014°45'1110.9
2014-Jul-18 08:33N 55°28' E 014°58'1313.1
2014-Jul-18 07:32N 55°38' E 015°14'1313.4
2014-Jul-18 06:33N 55°45' E 015°33'1413.5
2014-Jul-18 05:33N 55°52' E 015°54'1413.5
2014-Jul-18 04:33N 55°59' E 016°15'1313.4
2014-Jul-18 03:33N 56°06' E 016°36'1913.0
2014-Jul-18 02:07N 56°22' E 016°54'2313.6
2014-Jul-18 00:25N 56°43' E 017°09'1313.6
2014-Jul-17 23:26N 56°56' E 017°18'1213.3
2014-Jul-17 22:31N 57°07' E 017°26'1313.2
2014-Jul-17 21:33N 57°19' E 017°34'1313.0
2014-Jul-17 20:33N 57°31' E 017°41'1312.9
2014-Jul-17 19:33N 57°44' E 017°40'5510.9
2014-Jul-17 14:28N 58°38' E 017°10'  
2014-Jul-14 07:32N 58°39' E 017°08'78 1.9
2014-Jul-12 15:13N 57°24' E 017°47'1013.7
2014-Jul-12 14:28N 57°15' E 017°40'1313.8
2014-Jul-12 13:33N 57°03' E 017°31'1513.9
2014-Jul-12 12:30N 56°49' E 017°22'6412.9
2014-Jul-12 07:32N 55°55' E 016°20'3913.0
2014-Jul-12 04:33N 55°35' E 015°22'1313.1
2014-Jul-12 03:33N 55°29' E 015°00'1313.1
2014-Jul-12 02:33N 55°24' E 014°39'1413.1
2014-Jul-12 01:31N 55°14' E 014°24'2512.1
2014-Jul-11 23:27N 55°11' E 013°40'1413.2
2014-Jul-11 22:25N 55°12' E 013°16'1113.0
2014-Jul-11 21:33N 55°13' E 012°57'1010.5
2014-Jul-11 20:33N 55°17' E 012°39'10 9.9
2014-Jul-11 19:33N 55°27' E 012°40'9 9.0
2014-Jul-11 18:33N 55°36' E 012°42'1111.5
2014-Jul-11 17:33N 55°47' E 012°42'  

Dump ship's entire track history